Time;durP1;ratioP1;P1;durP2;ratioP2;P2;SDS_P1;SDS_P2;PMS_P1;PMS_P2;Temp;Humidity;BMP_temperature;BMP_pressure;BME280_temperature;BME280_humidity;BME280_pressure;Samples;Min_cycle;Max_cycle;Signal;HPM_P1;HPM_P2
2021/03/03 00:00:00;;;;;;;22.63;12.03;;;1.50;99.90;;;;;;5064807;28;20214;-85
2021/03/03 00:02:27;;;;;;;22.27;11.10;;;1.50;99.90;;;;;;5073986;28;20239;-86
2021/03/03 00:04:53;;;;;;;17.70;10.27;;;1.30;99.90;;;;;;5064751;28;20207;-85
2021/03/03 00:07:20;;;;;;;19.20;10.27;;;1.30;99.90;;;;;;5072981;28;20225;-86
2021/03/03 00:09:46;;;;;;;19.37;10.10;;;1.40;99.90;;;;;;5065710;28;20191;-87
2021/03/03 00:12:12;;;;;;;19.33;10.40;;;1.30;99.90;;;;;;5060554;28;20191;-86
2021/03/03 00:14:38;;;;;;;16.57;9.20;;;1.10;99.90;;;;;;5063923;28;20631;-86
2021/03/03 00:17:05;;;;;;;18.57;10.40;;;1.00;99.90;;;;;;5064062;28;20207;-85
2021/03/03 00:19:32;;;;;;;17.90;10.50;;;0.90;99.90;;;;;;5067450;28;20284;-86
2021/03/03 00:21:58;;;;;;;17.70;9.93;;;1.10;99.90;;;;;;5064044;28;20207;-86
2021/03/03 00:24:24;;;;;;;20.07;11.07;;;1.20;99.90;;;;;;5064074;28;20257;-86
2021/03/03 00:26:51;;;;;;;18.43;11.00;;;1.20;99.90;;;;;;5063391;28;20210;-85
2021/03/03 00:29:17;;;;;;;18.10;10.43;;;1.30;99.90;;;;;;5061224;28;20213;-86
2021/03/03 00:31:43;;;;;;;16.70;10.07;;;1.30;99.90;;;;;;5070017;28;20202;-86
2021/03/03 00:34:10;;;;;;;14.20;9.07;;;1.20;99.90;;;;;;5060086;28;20291;-86
2021/03/03 00:36:37;;;;;;;17.07;10.33;;;1.10;99.90;;;;;;5064949;28;20198;-86
2021/03/03 00:39:04;;;;;;;17.00;9.37;;;1.00;99.90;;;;;;5062633;28;20711;-86
2021/03/03 00:41:30;;;;;;;17.40;9.70;;;0.90;99.90;;;;;;5060028;28;20199;-86
2021/03/03 00:43:56;;;;;;;18.00;10.17;;;0.80;99.90;;;;;;5065303;28;20231;-86
2021/03/03 00:46:22;;;;;;;17.30;9.70;;;1.00;99.90;;;;;;5062920;28;20297;-86
2021/03/03 00:48:49;;;;;;;18.23;9.87;;;0.90;99.90;;;;;;5063609;28;20210;-86
2021/03/03 00:51:15;;;;;;;18.73;10.73;;;0.80;99.90;;;;;;5055568;28;20581;-86
2021/03/03 00:53:44;;;;;;;17.27;9.80;;;0.90;99.90;;;;;;5068475;28;20214;-86
2021/03/03 00:56:11;;;;;;;16.33;9.57;;;0.80;99.90;;;;;;5059704;28;20548;-86
2021/03/03 00:58:37;;;;;;;16.13;9.97;;;0.70;99.90;;;;;;5060716;28;20577;-86
2021/03/03 01:01:03;;;;;;;15.67;9.60;;;0.90;99.90;;;;;;5062396;28;20207;-86
2021/03/03 01:03:29;;;;;;;16.27;9.30;;;0.90;99.90;;;;;;5062893;28;20219;-87
2021/03/03 01:05:56;;;;;;;17.67;9.83;;;0.90;99.90;;;;;;5063465;28;20227;-87
2021/03/03 01:08:22;;;;;;;18.10;9.57;;;0.90;99.90;;;;;;5061861;28;20202;-88
2021/03/03 01:10:49;;;;;;;14.97;9.17;;;0.90;99.90;;;;;;5070839;28;20214;-87
2021/03/03 01:13:15;;;;;;;17.93;9.70;;;0.80;99.90;;;;;;5058375;28;20703;-87
2021/03/03 01:15:42;;;;;;;16.77;9.43;;;0.70;99.90;;;;;;5060224;28;20202;-87
2021/03/03 01:18:08;;;;;;;15.20;9.13;;;0.80;99.90;;;;;;5060468;28;20209;-88
2021/03/03 01:20:34;;;;;;;16.50;9.80;;;0.70;99.90;;;;;;5061777;28;20218;-87
2021/03/03 01:23:01;;;;;;;16.50;9.53;;;0.60;99.90;;;;;;5078241;28;20222;-88
2021/03/03 01:25:27;;;;;;;16.13;9.50;;;0.60;99.90;;;;;;5073258;28;20214;-87
2021/03/03 01:27:55;;;;;;;15.10;8.67;;;0.70;99.90;;;;;;5064009;28;20256;-87
2021/03/03 01:30:21;;;;;;;13.63;8.40;;;0.60;99.90;;;;;;5068387;28;20195;-86
2021/03/03 01:32:47;;;;;;;14.83;8.67;;;0.70;99.90;;;;;;5068050;28;20226;-87
2021/03/03 01:35:15;;;;;;;14.83;8.57;;;0.70;99.90;;;;;;5073007;28;20659;-86
2021/03/03 01:37:41;;;;;;;14.80;9.07;;;0.80;99.90;;;;;;5080141;28;20210;-87
2021/03/03 01:40:09;;;;;;;14.77;8.67;;;0.90;99.90;;;;;;5076469;28;20276;-86
2021/03/03 01:42:35;;;;;;;18.27;9.90;;;0.90;99.90;;;;;;5067482;28;20651;-87
2021/03/03 01:45:04;;;;;;;15.47;9.47;;;0.90;99.90;;;;;;5067386;28;20323;-87
2021/03/03 01:47:30;;;;;;;17.33;9.70;;;0.90;99.90;;;;;;5071348;28;20202;-87
2021/03/03 01:49:56;;;;;;;18.37;10.17;;;0.90;99.90;;;;;;5080650;28;20206;-87
2021/03/03 01:52:23;;;;;;;16.27;9.43;;;1.00;99.90;;;;;;5062081;28;20741;-86
2021/03/03 01:54:58;;;;;;;18.10;10.20;;;0.90;99.90;;;;;;5074940;28;20223;-87
2021/03/03 01:57:26;;;;;;;17.73;9.30;;;0.70;99.90;;;;;;5074418;28;20220;-86
2021/03/03 01:59:52;;;;;;;18.07;10.10;;;0.80;99.90;;;;;;5070450;28;20300;-87
2021/03/03 02:02:23;;;;;;;17.03;9.93;;;0.80;99.90;;;;;;5069554;28;20213;-87
2021/03/03 02:04:50;;;;;;;15.83;8.97;;;0.80;99.90;;;;;;5071727;28;20210;-87
2021/03/03 02:07:22;;;;;;;14.27;8.43;;;0.80;99.90;;;;;;5071016;28;20206;-87
2021/03/03 02:09:55;;;;;;;16.33;9.27;;;0.50;99.90;;;;;;5068490;28;20206;-88
2021/03/03 02:12:28;;;;;;;16.43;9.50;;;0.30;99.90;;;;;;5070795;28;20658;-87
2021/03/03 02:14:57;;;;;;;15.60;9.20;;;0.40;99.90;;;;;;5064247;28;20195;-87
2021/03/03 02:17:27;;;;;;;15.60;8.97;;;0.50;99.90;;;;;;5070427;28;20720;-87
2021/03/03 02:19:59;;;;;;;20.70;9.93;;;0.60;99.90;;;;;;5074810;28;20359;-88
2021/03/03 02:22:35;;;;;;;17.40;9.63;;;0.80;99.90;;;;;;5064102;28;20202;-87
2021/03/03 02:25:07;;;;;;;16.33;9.37;;;0.80;99.90;;;;;;5063966;28;20208;-87
2021/03/03 02:27:35;;;;;;;16.13;9.27;;;0.80;99.90;;;;;;5060896;28;20206;-87
2021/03/03 02:30:03;;;;;;;14.83;8.77;;;0.60;99.90;;;;;;5061532;28;20685;-88
2021/03/03 02:32:30;;;;;;;13.83;8.20;;;0.50;99.90;;;;;;5066140;28;20207;-87
2021/03/03 02:34:57;;;;;;;16.20;9.27;;;0.60;99.90;;;;;;5070951;28;20203;-87
2021/03/03 02:37:24;;;;;;;15.10;8.30;;;0.60;99.90;;;;;;5065233;28;20202;-87
2021/03/03 02:39:51;;;;;;;16.27;8.83;;;0.50;99.90;;;;;;5070298;28;20695;-88
2021/03/03 02:42:19;;;;;;;18.37;9.50;;;0.30;99.90;;;;;;5071128;28;20210;-87
2021/03/03 02:44:48;;;;;;;17.17;9.23;;;0.40;99.90;;;;;;5067421;28;20207;-87
2021/03/03 02:47:15;;;;;;;16.13;8.90;;;0.40;99.90;;;;;;5066719;28;20593;-87
2021/03/03 02:49:43;;;;;;;15.90;9.33;;;0.40;99.90;;;;;;5064844;28;20207;-87
2021/03/03 02:52:09;;;;;;;17.00;8.83;;;0.40;99.90;;;;;;5063553;28;20202;-87
2021/03/03 02:54:36;;;;;;;16.83;9.60;;;0.60;99.90;;;;;;5070636;28;20222;-87
2021/03/03 02:57:02;;;;;;;14.93;8.77;;;0.50;99.90;;;;;;5072859;28;20206;-88
2021/03/03 02:59:36;;;;;;;17.37;9.67;;;0.60;99.90;;;;;;5070187;28;20222;-89
2021/03/03 03:02:07;;;;;;;16.53;8.73;;;0.50;99.90;;;;;;5070798;28;20190;-88
2021/03/03 03:04:36;;;;;;;14.67;9.13;;;0.50;99.90;;;;;;5072223;28;20226;-87
2021/03/03 03:07:07;;;;;;;15.13;8.57;;;0.40;99.90;;;;;;5077522;28;20292;-87
2021/03/03 03:09:34;;;;;;;17.33;9.43;;;0.40;99.90;;;;;;5074778;28;20198;-87
2021/03/03 03:12:02;;;;;;;15.50;8.93;;;0.40;99.90;;;;;;5078218;28;20209;-87
2021/03/03 03:14:30;;;;;;;18.23;9.53;;;0.40;99.90;;;;;;5071485;28;20229;-87
2021/03/03 03:16:59;;;;;;;15.77;8.50;;;0.40;99.90;;;;;;5074977;28;20820;-87
2021/03/03 03:19:32;;;;;;;15.97;9.07;;;0.40;99.90;;;;;;5069333;28;20717;-86
2021/03/03 03:21:59;;;;;;;15.53;8.47;;;0.40;99.90;;;;;;5074724;28;20645;-87
2021/03/03 03:24:25;;;;;;;17.10;8.87;;;0.50;99.90;;;;;;5077921;28;20695;-86
2021/03/03 03:26:53;;;;;;;18.07;9.73;;;0.60;99.90;;;;;;5069837;28;20206;-86
2021/03/03 03:29:19;;;;;;;16.87;9.63;;;0.70;99.90;;;;;;5077088;28;20194;-87
2021/03/03 03:31:46;;;;;;;33.93;19.40;;;0.60;99.90;;;;;;5069244;28;20205;-87
2021/03/03 03:34:13;;;;;;;19.70;10.07;;;0.60;99.90;;;;;;5080017;28;20252;-87
2021/03/03 03:36:41;;;;;;;16.87;9.17;;;0.70;99.90;;;;;;5070305;28;20202;-88
2021/03/03 03:39:09;;;;;;;17.03;8.87;;;0.70;99.90;;;;;;5083019;28;20233;-88
2021/03/03 03:41:37;;;;;;;14.73;8.60;;;0.60;99.90;;;;;;5076086;28;20569;-87
2021/03/03 03:44:05;;;;;;;15.93;8.60;;;0.50;99.90;;;;;;5078100;28;20218;-86
2021/03/03 03:46:33;;;;;;;15.70;8.27;;;0.20;99.90;;;;;;5074348;28;20202;-87
2021/03/03 03:49:00;;;;;;;14.80;8.33;;;0.20;99.90;;;;;;5071594;28;20194;-87
2021/03/03 03:51:27;;;;;;;15.57;8.90;;;0.10;99.90;;;;;;5077697;28;20248;-87
2021/03/03 03:53:54;;;;;;;16.47;8.83;;;0.10;99.90;;;;;;5064218;28;20288;-87
2021/03/03 03:56:21;;;;;;;17.43;9.47;;;0.10;99.90;;;;;;5075108;28;20206;-87
2021/03/03 03:58:47;;;;;;;15.77;9.13;;;0.10;99.90;;;;;;5077872;28;20247;-86
2021/03/03 04:01:13;;;;;;;16.67;8.83;;;0.10;99.90;;;;;;5075969;28;20198;-86
2021/03/03 04:03:40;;;;;;;14.90;8.43;;;0.20;99.90;;;;;;5072897;28;20233;-87
2021/03/03 04:06:06;;;;;;;16.47;8.97;;;0.20;99.90;;;;;;5078462;28;20199;-86
2021/03/03 04:08:33;;;;;;;15.03;8.40;;;0.10;99.90;;;;;;5075076;28;20579;-87
2021/03/03 04:11:00;;;;;;;15.30;8.67;;;0.00;99.90;;;;;;5083937;28;20275;-87
2021/03/03 04:13:27;;;;;;;15.63;8.53;;;0.10;99.90;;;;;;5078972;28;20276;-88
2021/03/03 04:15:53;;;;;;;14.87;8.30;;;0.10;99.90;;;;;;5076377;28;20217;-86
2021/03/03 04:18:20;;;;;;;16.03;8.83;;;0.20;99.90;;;;;;5082262;28;20202;-87
2021/03/03 04:20:47;;;;;;;20.27;9.83;;;0.30;99.90;;;;;;5069235;28;20248;-87
2021/03/03 04:23:13;;;;;;;17.93;9.10;;;0.40;99.90;;;;;;5070144;28;20223;-87
2021/03/03 04:25:39;;;;;;;18.40;9.93;;;0.40;99.90;;;;;;5073530;28;20686;-87
2021/03/03 04:28:07;;;;;;;18.90;10.40;;;0.40;99.90;;;;;;5071073;28;20209;-87
2021/03/03 04:30:37;;;;;;;16.17;9.33;;;0.50;99.90;;;;;;5072311;28;20206;-87
2021/03/03 04:33:04;;;;;;;21.27;9.50;;;0.50;99.90;;;;;;5066089;28;20645;-87
2021/03/03 04:35:30;;;;;;;17.17;9.37;;;0.30;99.90;;;;;;5059125;28;20199;-86
2021/03/03 04:37:57;;;;;;;14.40;7.63;;;0.00;99.90;;;;;;5088183;28;20691;-87
2021/03/03 04:40:23;;;;;;;18.00;8.93;;;0.00;99.90;;;;;;5075086;28;20226;-86
2021/03/03 04:42:49;;;;;;;15.83;8.80;;;-0.20;99.90;;;;;;5079564;28;20237;-87
2021/03/03 04:45:17;;;;;;;14.50;8.53;;;-0.10;99.90;;;;;;5079622;28;20676;-87
2021/03/03 04:47:43;;;;;;;15.60;9.00;;;0.00;99.90;;;;;;5066142;28;20217;-87
2021/03/03 04:50:10;;;;;;;17.40;8.93;;;0.10;99.90;;;;;;5084442;28;20202;-88
2021/03/03 04:52:37;;;;;;;16.03;8.63;;;0.10;99.90;;;;;;5079913;28;20202;-86
2021/03/03 04:55:05;;;;;;;15.07;8.80;;;0.10;99.90;;;;;;5078941;28;20227;-87
2021/03/03 04:57:32;;;;;;;18.33;8.93;;;0.20;99.90;;;;;;5069102;28;20194;-87
2021/03/03 04:59:58;;;;;;;18.27;9.20;;;0.20;99.90;;;;;;5081397;28;20219;-87
2021/03/03 05:02:25;;;;;;;17.33;9.20;;;0.30;99.90;;;;;;5066401;28;20581;-87
2021/03/03 05:04:51;;;;;;;16.27;8.47;;;0.20;99.90;;;;;;5077133;28;20301;-87
2021/03/03 05:07:18;;;;;;;17.53;9.60;;;0.20;99.90;;;;;;5076104;28;20198;-87
2021/03/03 05:09:44;;;;;;;17.17;9.07;;;0.20;99.90;;;;;;5072596;28;20272;-86
2021/03/03 05:12:11;;;;;;;16.80;9.50;;;0.10;99.90;;;;;;5069933;28;20198;-87
2021/03/03 05:14:37;;;;;;;18.03;9.30;;;0.40;99.90;;;;;;5068498;28;20214;-87
2021/03/03 05:17:04;;;;;;;19.00;9.03;;;0.30;99.90;;;;;;5080635;28;20202;-87
2021/03/03 05:19:31;;;;;;;18.90;10.20;;;0.30;99.90;;;;;;5068734;28;20593;-86
2021/03/03 05:21:57;;;;;;;18.77;9.73;;;0.20;99.90;;;;;;5072719;28;20206;-87
2021/03/03 05:24:24;;;;;;;18.37;9.63;;;0.20;99.90;;;;;;5077350;28;20235;-86
2021/03/03 05:26:51;;;;;;;18.53;9.47;;;0.20;99.90;;;;;;5078883;28;20205;-87
2021/03/03 05:29:17;;;;;;;17.77;9.43;;;0.20;99.90;;;;;;5079490;28;20201;-86
2021/03/03 05:31:43;;;;;;;17.67;9.50;;;0.30;99.90;;;;;;5081259;28;20198;-87
2021/03/03 05:34:10;;;;;;;18.07;9.60;;;0.20;99.90;;;;;;5074429;28;20613;-88
2021/03/03 05:36:37;;;;;;;19.50;10.40;;;0.30;99.90;;;;;;5081028;28;20220;-87
2021/03/03 05:39:04;;;;;;;21.33;10.77;;;0.30;99.90;;;;;;5073200;28;20201;-87
2021/03/03 05:41:31;;;;;;;17.67;9.73;;;0.40;99.90;;;;;;5076706;28;20206;-87
2021/03/03 05:43:57;;;;;;;16.80;9.40;;;0.30;99.90;;;;;;5078380;28;20214;-87
2021/03/03 05:46:24;;;;;;;19.77;9.67;;;0.30;99.90;;;;;;5082547;28;20574;-87
2021/03/03 05:48:55;;;;;;;19.10;9.57;;;0.30;99.90;;;;;;5080464;28;20205;-87
2021/03/03 05:51:23;;;;;;;17.43;10.07;;;0.40;99.90;;;;;;5065385;28;20209;-86
2021/03/03 05:53:50;;;;;;;21.13;10.63;;;0.50;99.90;;;;;;5076966;28;20225;-87
2021/03/03 05:56:19;;;;;;;21.90;10.37;;;0.50;99.90;;;;;;5072993;28;20193;-86
2021/03/03 05:58:46;;;;;;;23.90;11.43;;;0.70;99.90;;;;;;5077324;28;20580;-87
2021/03/03 06:01:12;;;;;;;22.60;10.60;;;0.80;99.90;;;;;;5075634;28;20217;-86
2021/03/03 06:03:39;;;;;;;25.13;11.77;;;0.70;99.90;;;;;;5079463;28;20234;-87
2021/03/03 06:06:06;;;;;;;18.67;10.27;;;0.70;99.90;;;;;;5069287;28;20682;-87
2021/03/03 06:08:33;;;;;;;21.40;10.60;;;0.70;99.90;;;;;;5081416;28;20212;-86
2021/03/03 06:11:01;;;;;;;23.03;11.33;;;0.80;99.90;;;;;;5070748;28;20203;-87
2021/03/03 06:13:28;;;;;;;18.13;10.93;;;0.70;99.90;;;;;;5069222;28;20226;-87
2021/03/03 06:15:55;;;;;;;20.53;10.37;;;0.70;99.90;;;;;;5079052;28;20208;-88
2021/03/03 06:18:23;;;;;;;19.23;9.87;;;0.70;99.90;;;;;;5068327;28;20670;-87
2021/03/03 06:20:50;;;;;;;16.80;9.27;;;0.40;99.90;;;;;;5080640;28;20294;-87
2021/03/03 06:23:18;;;;;;;18.20;8.80;;;0.10;99.90;;;;;;5083922;28;20232;-87
2021/03/03 06:25:46;;;;;;;20.33;10.33;;;0.10;99.90;;;;;;5079394;28;20216;-86
2021/03/03 06:28:31;;;;;;;19.13;9.13;;;0.10;99.90;;;;;;5082320;28;20202;-87
2021/03/03 06:30:57;;;;;;;20.63;10.57;;;0.30;99.90;;;;;;5077513;28;20219;-87
2021/03/03 06:33:24;;;;;;;21.33;11.57;;;0.40;99.90;;;;;;5072377;28;20222;-88
2021/03/03 06:35:51;;;;;;;22.53;11.37;;;0.60;99.90;;;;;;5078199;28;20742;-87
2021/03/03 06:38:27;;;;;;;22.33;11.70;;;0.80;99.90;;;;;;5083900;28;20202;-86
2021/03/03 06:40:54;;;;;;;22.33;11.97;;;0.90;99.90;;;;;;5081544;28;20213;-87
2021/03/03 06:43:23;;;;;;;21.00;11.73;;;0.90;99.90;;;;;;5093558;28;20678;-87
2021/03/03 06:45:50;;;;;;;21.00;11.17;;;0.90;99.90;;;;;;5088745;28;20230;-87
2021/03/03 06:48:35;;;;;;;22.93;11.93;;;1.00;99.90;;;;;;5081193;28;20201;-87
2021/03/03 06:51:01;;;;;;;22.73;11.60;;;0.90;99.90;;;;;;5084284;28;20202;-88
2021/03/03 06:53:31;;;;;;;20.57;10.87;;;1.00;99.90;;;;;;5089401;28;20248;-87
2021/03/03 06:55:57;;;;;;;23.23;11.83;;;1.10;99.90;;;;;;5084400;28;20202;-87
2021/03/03 06:58:25;;;;;;;22.90;11.93;;;1.20;99.90;;;;;;5083225;28;20212;-88
2021/03/03 07:00:52;;;;;;;21.27;11.83;;;1.40;99.90;;;;;;5084241;28;20230;-87
2021/03/03 07:03:32;;;;;;;24.40;11.90;;;1.60;99.90;;;;;;5083673;28;20283;-86
2021/03/03 07:05:58;;;;;;;23.20;11.80;;;1.60;99.90;;;;;;5091697;28;20204;-86
2021/03/03 07:08:25;;;;;;;22.37;11.67;;;1.80;99.90;;;;;;5093923;28;20247;-86
2021/03/03 07:10:51;;;;;;;20.53;11.90;;;1.90;99.90;;;;;;5075263;28;20206;-86
2021/03/03 07:13:18;;;;;;;23.13;12.20;;;1.90;99.90;;;;;;5077405;28;20218;-86
2021/03/03 07:15:45;;;;;;;21.77;12.40;;;1.80;99.90;;;;;;5080263;28;20206;-86
2021/03/03 07:18:36;;;;;;;21.53;11.50;;;1.90;99.90;;;;;;5074422;28;20684;-87
2021/03/03 07:21:02;;;;;;;23.27;11.40;;;1.90;99.90;;;;;;5078467;28;20233;-86
2021/03/03 07:23:43;;;;;;;21.93;12.20;;;2.10;99.90;;;;;;5084158;28;20226;-86
2021/03/03 07:26:10;;;;;;;22.93;11.47;;;2.30;99.90;;;;;;5074185;28;20267;-87
2021/03/03 07:28:37;;;;;;;18.50;10.67;;;2.40;99.90;;;;;;5073591;28;20215;-86
2021/03/03 07:31:05;;;;;;;20.10;11.10;;;2.30;99.90;;;;;;5074931;28;20566;-86
2021/03/03 07:33:31;;;;;;;20.47;11.53;;;2.50;99.90;;;;;;5069689;28;20271;-86
2021/03/03 07:35:59;;;;;;;22.37;12.50;;;2.50;99.90;;;;;;5065452;28;20202;-86
2021/03/03 07:38:30;;;;;;;21.93;11.63;;;2.90;99.90;;;;;;5079675;28;20231;-86
2021/03/03 07:41:01;;;;;;;22.83;13.07;;;3.40;99.90;;;;;;5075597;28;20218;-86
2021/03/03 07:43:30;;;;;;;20.73;12.03;;;4.00;99.90;;;;;;5079120;28;20594;-86
2021/03/03 07:45:57;;;;;;;22.30;11.97;;;5.00;99.90;;;;;;5075884;28;20674;-86
2021/03/03 07:48:28;;;;;;;17.77;11.30;;;6.00;99.90;;;;;;5088497;28;20210;-86
2021/03/03 07:50:55;;;;;;;21.33;11.53;;;6.20;99.90;;;;;;5066118;28;20195;-87
2021/03/03 07:53:21;;;;;;;20.03;12.23;;;6.60;99.90;;;;;;5079104;28;20714;-86
2021/03/03 07:55:48;;;;;;;18.63;11.23;;;6.20;99.90;;;;;;5079501;28;20229;-86
2021/03/03 07:58:14;;;;;;;38.07;22.00;;;5.70;99.90;;;;;;5074669;28;20206;-86
2021/03/03 08:00:43;;;;;;;31.63;19.77;;;5.50;99.90;;;;;;5081188;28;20345;-87
2021/03/03 08:03:09;;;;;;;21.83;12.90;;;5.50;99.90;;;;;;5083886;28;20253;-86
2021/03/03 08:05:37;;;;;;;22.40;13.00;;;5.50;99.90;;;;;;5085171;28;20212;-86
2021/03/03 08:08:23;;;;;;;23.83;12.67;;;6.00;99.90;;;;;;5078165;28;20289;-86
2021/03/03 08:10:50;;;;;;;24.87;12.80;;;6.20;99.90;;;;;;5080832;28;20202;-86
2021/03/03 08:13:17;;;;;;;20.43;12.37;;;6.70;99.90;;;;;;5080017;28;20718;-83
2021/03/03 08:15:45;;;;;;;22.97;12.83;;;7.60;99.90;;;;;;5072313;28;20210;-86
2021/03/03 08:18:33;;;;;;;22.00;12.80;;;7.60;99.90;;;;;;5076511;28;20616;-86
2021/03/03 08:21:01;;;;;;;21.87;12.17;;;7.30;99.90;;;;;;5078315;28;20226;-85
2021/03/03 08:23:48;;;;;;;22.77;12.23;;;7.30;99.90;;;;;;5078803;28;20223;-85
2021/03/03 08:26:38;;;;;;;24.33;13.53;;;7.40;99.90;;;;;;5072528;28;20660;-85
2021/03/03 08:29:19;;;;;;;22.07;12.90;;;7.50;99.90;;;;;;5063422;28;20227;-85
2021/03/03 08:31:46;;;;;;;23.63;13.60;;;7.50;99.90;;;;;;5077348;28;20197;-86
2021/03/03 08:34:14;;;;;;;22.37;12.97;;;7.60;99.90;;;;;;5074202;28;20211;-84
2021/03/03 08:37:00;;;;;;;25.87;14.00;;;8.20;99.90;;;;;;5078711;28;20820;-85
2021/03/03 08:39:32;;;;;;;21.97;12.57;;;8.30;99.90;;;;;;5070188;28;20210;-85
2021/03/03 08:41:59;;;;;;;20.47;12.10;;;8.60;99.90;;;;;;5075424;28;20206;-86
2021/03/03 08:44:26;;;;;;;22.97;12.57;;;8.60;99.90;;;;;;5071588;28;20251;-86
2021/03/03 08:46:53;;;;;;;25.63;14.10;;;8.50;99.90;;;;;;5073100;28;20247;-87
2021/03/03 08:49:29;;;;;;;24.27;13.03;;;8.60;99.90;;;;;;5079926;28;20237;-87
2021/03/03 08:52:13;;;;;;;25.20;13.07;;;8.80;99.90;;;;;;5071501;28;20206;-86
2021/03/03 08:54:45;;;;;;;24.63;13.00;;;8.60;99.90;;;;;;5066916;28;20298;-87
2021/03/03 08:57:31;;;;;;;25.97;13.77;;;8.70;99.90;;;;;;5074897;28;20213;-86
2021/03/03 08:59:58;;;;;;;25.73;12.30;;;8.90;99.90;;;;;;5067141;28;20360;-84
2021/03/03 09:02:36;;;;;;;22.47;12.80;;;8.80;99.90;;;;;;5070752;28;20221;-85
2021/03/03 09:05:08;;;;;;;19.27;11.03;;;9.10;99.90;;;;;;5066066;28;20213;-85
2021/03/03 09:07:35;;;;;;;21.07;12.57;;;9.20;99.90;;;;;;5080315;28;20202;-84
2021/03/03 09:10:04;;;;;;;22.00;12.33;;;9.20;99.90;;;;;;5071892;28;20607;-87
2021/03/03 09:12:33;;;;;;;20.70;11.67;;;9.30;99.90;;;;;;5066440;28;20214;-84
2021/03/03 09:15:01;;;;;;;18.93;10.60;;;9.40;99.90;;;;;;5062269;28;20203;-84
2021/03/03 09:17:28;;;;;;;23.57;12.53;;;9.50;99.90;;;;;;5062948;28;20210;-84
2021/03/03 09:19:55;;;;;;;21.67;11.87;;;9.60;99.90;;;;;;5074033;28;20233;-84
2021/03/03 09:22:23;;;;;;;18.80;11.00;;;9.70;99.90;;;;;;5068726;28;20206;-84
2021/03/03 09:24:52;;;;;;;18.13;9.70;;;9.70;99.90;;;;;;5061142;28;20213;-84
2021/03/03 09:27:20;;;;;;;20.03;11.13;;;9.90;99.90;;;;;;5066913;28;20215;-85
2021/03/03 09:29:48;;;;;;;20.53;10.80;;;9.80;99.90;;;;;;5076196;28;20201;-85
2021/03/03 09:32:20;;;;;;;19.07;10.13;;;9.80;99.90;;;;;;5073602;28;20210;-84
2021/03/03 09:34:48;;;;;;;19.77;10.83;;;9.90;99.90;;;;;;5077296;28;20210;-86
2021/03/03 09:37:15;;;;;;;18.97;10.40;;;9.90;99.90;;;;;;5070245;28;20210;-86
2021/03/03 09:39:41;;;;;;;20.03;10.77;;;10.10;99.90;;;;;;5064947;28;20227;-85
2021/03/03 09:42:10;;;;;;;20.30;10.80;;;10.30;99.90;;;;;;5066379;28;20210;-85
2021/03/03 09:44:46;;;;;;;17.83;9.97;;;10.50;99.90;;;;;;5070448;28;20360;-85
2021/03/03 09:47:20;;;;;;;19.07;9.70;;;10.70;99.90;;;;;;5067816;28;20206;-84
2021/03/03 09:49:46;;;;;;;20.33;10.87;;;10.90;99.90;;;;;;5069950;28;20201;-85
2021/03/03 09:52:13;;;;;;;19.47;10.80;;;11.30;99.90;;;;;;5072857;28;20206;-85
2021/03/03 09:54:39;;;;;;;19.47;10.13;;;11.70;99.90;;;;;;5070302;28;20218;-85
2021/03/03 09:57:11;;;;;;;18.17;10.27;;;12.20;99.90;;;;;;5073899;28;20211;-85
2021/03/03 09:59:40;;;;;;;18.90;9.53;;;12.40;99.90;;;;;;5071476;28;20214;-85
2021/03/03 10:02:08;;;;;;;18.17;10.40;;;12.30;99.90;;;;;;5068452;28;20205;-85
2021/03/03 10:04:41;;;;;;;19.20;10.10;;;11.90;99.90;;;;;;5069220;28;20233;-84
2021/03/03 10:07:12;;;;;;;18.00;10.00;;;11.60;99.90;;;;;;5074841;28;20202;-85
2021/03/03 10:09:40;;;;;;;18.80;10.63;;;11.40;99.90;;;;;;5067584;28;20215;-84
2021/03/03 10:12:09;;;;;;;19.10;10.57;;;11.30;99.90;;;;;;5072336;28;20206;-87
2021/03/03 10:14:48;;;;;;;19.20;10.93;;;11.50;99.90;;;;;;5077094;28;20713;-86
2021/03/03 10:17:14;;;;;;;21.63;11.93;;;11.40;99.90;;;;;;5083019;28;20218;-86
2021/03/03 10:19:42;;;;;;;21.20;11.03;;;11.50;99.90;;;;;;5072392;28;20222;-85
2021/03/03 10:22:09;;;;;;;20.23;10.87;;;11.70;99.90;;;;;;5081479;28;20212;-86
2021/03/03 10:24:35;;;;;;;19.60;11.47;;;12.10;99.90;;;;;;5071569;28;20296;-85
2021/03/03 10:27:01;;;;;;;20.63;10.13;;;12.30;99.90;;;;;;5082137;28;20233;-86
2021/03/03 10:29:36;;;;;;;20.27;10.90;;;12.30;99.90;;;;;;5071291;28;20260;-85
2021/03/03 10:32:12;;;;;;;17.63;10.30;;;12.50;99.90;;;;;;5084837;28;20576;-86
2021/03/03 10:34:39;;;;;;;17.97;10.23;;;12.70;99.90;;;;;;5072648;28;20220;-86
2021/03/03 10:37:05;;;;;;;20.27;10.87;;;12.70;99.90;;;;;;5080155;28;20255;-85
2021/03/03 10:39:33;;;;;;;19.53;10.47;;;12.70;99.90;;;;;;5081361;28;20219;-86
2021/03/03 10:42:01;;;;;;;19.40;10.20;;;12.80;99.90;;;;;;5071196;28;20226;-85
2021/03/03 10:44:39;;;;;;;19.80;10.60;;;12.90;99.90;;;;;;5083501;28;20221;-86
2021/03/03 10:47:05;;;;;;;20.80;10.33;;;12.80;99.90;;;;;;5074298;28;20203;-86
2021/03/03 10:49:32;;;;;;;21.10;10.27;;;13.00;99.90;;;;;;5086598;28;20220;-87
2021/03/03 10:51:58;;;;;;;17.90;9.77;;;13.20;99.90;;;;;;5074312;28;20278;-85
2021/03/03 10:54:31;;;;;;;19.70;9.50;;;13.30;99.90;;;;;;5081861;28;20228;-85
2021/03/03 10:57:05;;;;;;;19.40;10.90;;;13.20;99.90;;;;;;5073931;28;20217;-85
2021/03/03 10:59:32;;;;;;;16.73;10.27;;;13.00;99.90;;;;;;5068024;28;20748;-86
2021/03/03 11:02:01;;;;;;;19.40;10.53;;;13.10;99.90;;;;;;5080006;28;20201;-85
2021/03/03 11:04:52;;;;;;;21.53;10.87;;;13.10;99.90;;;;;;5076000;28;20222;-86
2021/03/03 11:07:18;;;;;;;18.90;10.33;;;13.20;99.90;;;;;;5069719;28;20199;-86
2021/03/03 11:34:00;;;;;;;21.53;11.43;;;14.50;99.90;;;;;;4841417;29;20252;-85
2021/03/03 11:52:57;;;;;;;20.93;10.53;;;14.60;99.90;;;;;;4819212;22;20213;-80
2021/03/03 11:55:25;;;;;;;21.03;11.50;;;14.60;99.90;;;;;;5084790;28;20366;-81
2021/03/03 11:57:51;;;;;;;21.60;11.23;;;14.80;99.90;;;;;;5084610;28;20206;-78
2021/03/03 12:00:19;;;;;;;22.57;11.93;;;14.60;99.90;;;;;;5082504;28;20305;-79
2021/03/03 12:02:45;;;;;;;19.53;10.87;;;14.80;99.90;;;;;;5087564;28;20254;-80
2021/03/03 12:05:12;;;;;;;20.63;11.50;;;14.60;99.90;;;;;;5088769;28;20226;-79
2021/03/03 12:07:39;;;;;;;17.87;10.63;;;14.70;99.90;;;;;;5080176;28;20212;-79
2021/03/03 12:10:08;;;;;;;20.50;10.93;;;14.80;99.90;;;;;;5085245;28;20224;-80
2021/03/03 12:12:34;;;;;;;21.20;11.60;;;14.90;99.90;;;;;;5084365;28;20210;-80
2021/03/03 12:15:01;;;;;;;23.07;13.07;;;15.20;99.90;;;;;;5083611;28;20854;-79
2021/03/03 12:17:28;;;;;;;23.83;11.50;;;15.30;99.90;;;;;;5082885;28;20236;-80
2021/03/03 12:19:55;;;;;;;22.37;11.50;;;15.60;99.90;;;;;;5076319;28;20226;-80
2021/03/03 12:22:21;;;;;;;22.83;11.67;;;15.60;99.90;;;;;;5069037;28;20207;-79
2021/03/03 12:24:47;;;;;;;24.40;11.37;;;15.70;99.90;;;;;;5073339;28;20222;-80
2021/03/03 12:27:14;;;;;;;18.25;10.60;;;15.60;99.90;;;;;;5082943;28;20222;-80
2021/03/03 12:29:41;;;;;;;21.53;10.90;;;15.70;99.90;;;;;;5084075;28;20229;-79
2021/03/03 12:32:08;;;;;;;21.70;10.77;;;15.60;99.90;;;;;;5083988;28;20198;-79
2021/03/03 12:34:34;;;;;;;20.52;10.98;;;15.40;99.90;;;;;;5084640;28;20316;-79
2021/03/03 12:37:01;;;;;;;22.10;11.68;;;15.60;99.90;;;;;;5085227;28;20206;-79
2021/03/03 12:39:27;;;;;;;22.43;11.70;;;15.60;99.90;;;;;;5086144;28;20208;-79
2021/03/03 12:41:53;;;;;;;20.70;11.23;;;15.50;99.90;;;;;;5081723;28;20226;-80
2021/03/03 12:44:21;;;;;;;25.17;12.07;;;15.70;99.90;;;;;;5081971;28;20361;-80
2021/03/03 12:46:48;;;;;;;25.70;11.77;;;16.00;99.90;;;;;;5086648;28;20222;-80
2021/03/03 12:49:14;;;;;;;23.03;11.53;;;15.70;99.90;;;;;;5077906;28;20424;-80
2021/03/03 12:51:40;;;;;;;19.83;10.53;;;16.10;99.90;;;;;;5075921;28;20591;-76
2021/03/03 12:54:07;;;;;;;21.98;11.75;;;16.30;99.90;;;;;;5075617;28;20210;-80
2021/03/03 12:56:33;;;;;;;20.97;11.17;;;16.40;99.90;;;;;;5076381;28;20285;-80
2021/03/03 12:59:00;;;;;;;23.57;11.40;;;16.40;99.90;;;;;;5078725;28;20202;-79
2021/03/03 13:01:27;;;;;;;23.90;12.10;;;16.30;99.90;;;;;;5078274;28;20282;-80
2021/03/03 13:03:53;;;;;;;22.83;12.73;;;16.60;99.90;;;;;;5079344;28;20266;-80
2021/03/03 13:06:21;;;;;;;21.90;12.00;;;16.30;99.90;;;;;;5080342;28;20237;-80
2021/03/03 13:08:48;;;;;;;22.23;11.85;;;16.10;99.90;;;;;;5079609;28;20266;-80
2021/03/03 13:11:15;;;;;;;25.02;12.68;;;16.20;99.90;;;;;;5079962;28;20263;-80
2021/03/03 13:13:41;;;;;;;22.98;12.40;;;16.10;99.90;;;;;;5080461;28;20252;-79
2021/03/03 13:16:09;;;;;;;21.25;12.15;;;16.30;99.90;;;;;;5073876;28;20230;-80
2021/03/03 13:18:37;;;;;;;25.75;11.90;;;16.00;99.90;;;;;;5078745;28;20202;-79
2021/03/03 13:21:03;;;;;;;21.42;12.23;;;16.00;99.90;;;;;;5079038;28;20285;-79
2021/03/03 13:23:30;;;;;;;25.40;11.85;;;16.10;99.90;;;;;;5082587;28;20265;-79